sensor_id;sensor_type;location;lat;lon;timestamp;P1;durP1;ratioP1;P2;durP2;ratioP2
1180;SDS011;579;52.046;8.532;2023-03-01T00:00:24;0.10;;;0.10;;
1180;SDS011;579;52.046;8.532;2023-03-01T00:02:50;0.10;;;0.10;;
1180;SDS011;579;52.046;8.532;2023-03-01T00:05:16;0.10;;;0.10;;
1180;SDS011;579;52.046;8.532;2023-03-01T00:07:42;0.10;;;0.10;;
1180;SDS011;579;52.046;8.532;2023-03-01T00:10:09;0.10;;;0.10;;
1180;SDS011;579;52.046;8.532;2023-03-01T00:12:36;0.10;;;0.10;;
1180;SDS011;579;52.046;8.532;2023-03-01T00:20:08;0.10;;;0.10;;
1180;SDS011;579;52.046;8.532;2023-03-01T00:22:36;0.20;;;0.20;;
1180;SDS011;579;52.046;8.532;2023-03-01T00:25:02;0.10;;;0.10;;
1180;SDS011;579;52.046;8.532;2023-03-01T00:27:30;0.10;;;0.10;;
1180;SDS011;579;52.046;8.532;2023-03-01T00:29:56;0.10;;;0.10;;
1180;SDS011;579;52.046;8.532;2023-03-01T00:32:22;0.17;;;0.17;;
1180;SDS011;579;52.046;8.532;2023-03-01T00:34:48;0.10;;;0.10;;
1180;SDS011;579;52.046;8.532;2023-03-01T00:39:59;0.10;;;0.10;;
1180;SDS011;579;52.046;8.532;2023-03-01T00:42:25;0.10;;;0.10;;
1180;SDS011;579;52.046;8.532;2023-03-01T00:44:51;0.10;;;0.10;;
1180;SDS011;579;52.046;8.532;2023-03-01T00:47:17;0.10;;;0.10;;
1180;SDS011;579;52.046;8.532;2023-03-01T00:49:43;0.00;;;0.00;;
1180;SDS011;579;52.046;8.532;2023-03-01T00:52:09;0.10;;;0.10;;
1180;SDS011;579;52.046;8.532;2023-03-01T00:54:35;0.10;;;0.10;;
1180;SDS011;579;52.046;8.532;2023-03-01T00:59:45;0.10;;;0.10;;
1180;SDS011;579;52.046;8.532;2023-03-01T01:02:11;0.10;;;0.10;;
1180;SDS011;579;52.046;8.532;2023-03-01T01:04:37;0.10;;;0.10;;
1180;SDS011;579;52.046;8.532;2023-03-01T01:07:03;0.10;;;0.10;;
1180;SDS011;579;52.046;8.532;2023-03-01T01:09:30;0.10;;;0.10;;
1180;SDS011;579;52.046;8.532;2023-03-01T01:11:56;0.10;;;0.10;;
1180;SDS011;579;52.046;8.532;2023-03-01T01:14:23;0.10;;;0.10;;
1180;SDS011;579;52.046;8.532;2023-03-01T01:16:49;0.10;;;0.10;;
1180;SDS011;579;52.046;8.532;2023-03-01T01:23:46;0.10;;;0.10;;
1180;SDS011;579;52.046;8.532;2023-03-01T01:26:13;0.10;;;0.10;;
1180;SDS011;579;52.046;8.532;2023-03-01T01:28:41;0.10;;;0.10;;
1180;SDS011;579;52.046;8.532;2023-03-01T01:31:08;0.10;;;0.10;;
1180;SDS011;579;52.046;8.532;2023-03-01T01:33:34;0.10;;;0.10;;
1180;SDS011;579;52.046;8.532;2023-03-01T01:36:02;0.10;;;0.10;;
1180;SDS011;579;52.046;8.532;2023-03-01T01:38:29;0.10;;;0.10;;
1180;SDS011;579;52.046;8.532;2023-03-01T01:40:57;0.20;;;0.20;;
1180;SDS011;579;52.046;8.532;2023-03-01T01:43:45;0.10;;;0.10;;
1180;SDS011;579;52.046;8.532;2023-03-01T01:46:16;0.10;;;0.10;;
1180;SDS011;579;52.046;8.532;2023-03-01T01:48:52;0.10;;;0.10;;
1180;SDS011;579;52.046;8.532;2023-03-01T01:51:23;0.10;;;0.10;;
1180;SDS011;579;52.046;8.532;2023-03-01T01:54:03;0.10;;;0.10;;
1180;SDS011;579;52.046;8.532;2023-03-01T01:56:36;0.10;;;0.10;;
1180;SDS011;579;52.046;8.532;2023-03-01T01:59:04;0.10;;;0.10;;
1180;SDS011;579;52.046;8.532;2023-03-01T02:01:31;0.10;;;0.10;;
1180;SDS011;579;52.046;8.532;2023-03-01T02:04:12;0.10;;;0.10;;
1180;SDS011;579;52.046;8.532;2023-03-01T02:06:39;0.10;;;0.10;;
1180;SDS011;579;52.046;8.532;2023-03-01T02:09:13;0.10;;;0.10;;
1180;SDS011;579;52.046;8.532;2023-03-01T02:11:41;0.10;;;0.10;;
1180;SDS011;579;52.046;8.532;2023-03-01T02:14:09;0.10;;;0.10;;
1180;SDS011;579;52.046;8.532;2023-03-01T02:16:35;0.20;;;0.20;;
1180;SDS011;579;52.046;8.532;2023-03-01T02:19:01;0.10;;;0.10;;
1180;SDS011;579;52.046;8.532;2023-03-01T02:25:45;0.10;;;0.10;;
1180;SDS011;579;52.046;8.532;2023-03-01T02:28:26;0.10;;;0.10;;
1180;SDS011;579;52.046;8.532;2023-03-01T02:30:56;0.10;;;0.10;;
1180;SDS011;579;52.046;8.532;2023-03-01T02:33:41;0.10;;;0.10;;
1180;SDS011;579;52.046;8.532;2023-03-01T02:36:09;0.10;;;0.10;;
1180;SDS011;579;52.046;8.532;2023-03-01T02:38:39;0.10;;;0.10;;
1180;SDS011;579;52.046;8.532;2023-03-01T02:41:06;0.10;;;0.10;;
1180;SDS011;579;52.046;8.532;2023-03-01T02:48:43;0.08;;;0.08;;
1180;SDS011;579;52.046;8.532;2023-03-01T02:51:31;0.10;;;0.10;;
1180;SDS011;579;52.046;8.532;2023-03-01T02:54:12;0.10;;;0.10;;
1180;SDS011;579;52.046;8.532;2023-03-01T02:56:45;0.15;;;0.15;;
1180;SDS011;579;52.046;8.532;2023-03-01T02:59:14;0.10;;;0.10;;
1180;SDS011;579;52.046;8.532;2023-03-01T03:01:42;0.10;;;0.10;;
1180;SDS011;579;52.046;8.532;2023-03-01T03:04:09;0.10;;;0.10;;
1180;SDS011;579;52.046;8.532;2023-03-01T03:09:21;0.13;;;0.13;;
1180;SDS011;579;52.046;8.532;2023-03-01T03:11:47;0.10;;;0.10;;
1180;SDS011;579;52.046;8.532;2023-03-01T03:14:15;0.10;;;0.10;;
1180;SDS011;579;52.046;8.532;2023-03-01T03:16:42;0.10;;;0.10;;
1180;SDS011;579;52.046;8.532;2023-03-01T03:19:12;0.10;;;0.10;;
1180;SDS011;579;52.046;8.532;2023-03-01T03:21:38;0.10;;;0.10;;
1180;SDS011;579;52.046;8.532;2023-03-01T03:24:05;0.10;;;0.10;;
1180;SDS011;579;52.046;8.532;2023-03-01T03:26:32;0.10;;;0.10;;
1180;SDS011;579;52.046;8.532;2023-03-01T03:31:34;0.10;;;0.10;;
1180;SDS011;579;52.046;8.532;2023-03-01T03:34:00;0.10;;;0.10;;
1180;SDS011;579;52.046;8.532;2023-03-01T03:36:26;0.10;;;0.10;;
1180;SDS011;579;52.046;8.532;2023-03-01T03:38:52;0.15;;;0.15;;
1180;SDS011;579;52.046;8.532;2023-03-01T03:41:18;0.10;;;0.10;;
1180;SDS011;579;52.046;8.532;2023-03-01T03:43:45;0.10;;;0.10;;
1180;SDS011;579;52.046;8.532;2023-03-01T03:46:11;0.10;;;0.10;;
1180;SDS011;579;52.046;8.532;2023-03-01T03:48:40;0.20;;;0.20;;
1180;SDS011;579;52.046;8.532;2023-03-01T03:51:45;0.10;;;0.10;;
1180;SDS011;579;52.046;8.532;2023-03-01T03:54:11;0.10;;;0.10;;
1180;SDS011;579;52.046;8.532;2023-03-01T03:56:38;0.10;;;0.10;;
1180;SDS011;579;52.046;8.532;2023-03-01T03:59:04;0.10;;;0.10;;
1180;SDS011;579;52.046;8.532;2023-03-01T04:01:30;0.20;;;0.20;;
1180;SDS011;579;52.046;8.532;2023-03-01T04:03:57;0.10;;;0.10;;
1180;SDS011;579;52.046;8.532;2023-03-01T04:06:29;0.10;;;0.10;;
1180;SDS011;579;52.046;8.532;2023-03-01T04:08:56;0.10;;;0.10;;
1180;SDS011;579;52.046;8.532;2023-03-01T04:16:15;0.10;;;0.10;;
1180;SDS011;579;52.046;8.532;2023-03-01T04:18:42;0.00;;;0.00;;
1180;SDS011;579;52.046;8.532;2023-03-01T04:21:09;0.10;;;0.10;;
1180;SDS011;579;52.046;8.532;2023-03-01T04:23:38;0.10;;;0.10;;
1180;SDS011;579;52.046;8.532;2023-03-01T04:26:06;0.10;;;0.10;;
1180;SDS011;579;52.046;8.532;2023-03-01T04:28:33;0.10;;;0.10;;
1180;SDS011;579;52.046;8.532;2023-03-01T04:31:02;0.10;;;0.10;;
1180;SDS011;579;52.046;8.532;2023-03-01T04:39:09;0.10;;;0.10;;
1180;SDS011;579;52.046;8.532;2023-03-01T04:41:37;0.10;;;0.10;;
1180;SDS011;579;52.046;8.532;2023-03-01T04:44:04;0.10;;;0.10;;
1180;SDS011;579;52.046;8.532;2023-03-01T04:46:31;0.10;;;0.10;;
1180;SDS011;579;52.046;8.532;2023-03-01T04:48:58;0.10;;;0.10;;
1180;SDS011;579;52.046;8.532;2023-03-01T04:51:24;0.10;;;0.10;;
1180;SDS011;579;52.046;8.532;2023-03-01T04:53:50;0.10;;;0.10;;
1180;SDS011;579;52.046;8.532;2023-03-01T04:59:15;0.10;;;0.10;;
1180;SDS011;579;52.046;8.532;2023-03-01T05:01:41;0.10;;;0.10;;
1180;SDS011;579;52.046;8.532;2023-03-01T05:04:07;0.10;;;0.10;;
1180;SDS011;579;52.046;8.532;2023-03-01T05:06:38;0.10;;;0.10;;
1180;SDS011;579;52.046;8.532;2023-03-01T05:09:04;0.10;;;0.10;;
1180;SDS011;579;52.046;8.532;2023-03-01T05:11:31;0.15;;;0.15;;
1180;SDS011;579;52.046;8.532;2023-03-01T05:14:00;0.10;;;0.10;;
1180;SDS011;579;52.046;8.532;2023-03-01T05:16:28;0.13;;;0.13;;
1180;SDS011;579;52.046;8.532;2023-03-01T05:21:34;0.10;;;0.10;;
1180;SDS011;579;52.046;8.532;2023-03-01T05:24:20;0.10;;;0.10;;
1180;SDS011;579;52.046;8.532;2023-03-01T05:26:47;0.10;;;0.10;;
1180;SDS011;579;52.046;8.532;2023-03-01T05:29:13;0.10;;;0.10;;
1180;SDS011;579;52.046;8.532;2023-03-01T05:31:39;0.20;;;0.20;;
1180;SDS011;579;52.046;8.532;2023-03-01T05:34:06;0.10;;;0.10;;
1180;SDS011;579;52.046;8.532;2023-03-01T05:36:32;0.13;;;0.13;;
1180;SDS011;579;52.046;8.532;2023-03-01T05:39:00;0.10;;;0.10;;
1180;SDS011;579;52.046;8.532;2023-03-01T05:46:31;0.20;;;0.20;;
1180;SDS011;579;52.046;8.532;2023-03-01T05:48:57;0.10;;;0.10;;
1180;SDS011;579;52.046;8.532;2023-03-01T05:51:25;0.20;;;0.20;;
1180;SDS011;579;52.046;8.532;2023-03-01T05:53:51;0.10;;;0.10;;
1180;SDS011;579;52.046;8.532;2023-03-01T05:56:17;0.10;;;0.10;;
1180;SDS011;579;52.046;8.532;2023-03-01T05:58:43;0.20;;;0.20;;
1180;SDS011;579;52.046;8.532;2023-03-01T06:01:10;0.10;;;0.10;;
1180;SDS011;579;52.046;8.532;2023-03-01T06:03:38;0.15;;;0.15;;
1180;SDS011;579;52.046;8.532;2023-03-01T06:08:44;0.10;;;0.10;;
1180;SDS011;579;52.046;8.532;2023-03-01T06:11:11;0.17;;;0.17;;
1180;SDS011;579;52.046;8.532;2023-03-01T06:13:37;0.20;;;0.20;;
1180;SDS011;579;52.046;8.532;2023-03-01T06:16:04;0.10;;;0.10;;
1180;SDS011;579;52.046;8.532;2023-03-01T06:18:31;0.10;;;0.10;;
1180;SDS011;579;52.046;8.532;2023-03-01T06:20:57;0.15;;;0.15;;
1180;SDS011;579;52.046;8.532;2023-03-01T06:23:23;0.20;;;0.20;;
1180;SDS011;579;52.046;8.532;2023-03-01T06:28:44;0.10;;;0.10;;
1180;SDS011;579;52.046;8.532;2023-03-01T06:31:11;0.15;;;0.15;;
1180;SDS011;579;52.046;8.532;2023-03-01T06:33:37;0.10;;;0.10;;
1180;SDS011;579;52.046;8.532;2023-03-01T06:36:03;0.17;;;0.17;;
1180;SDS011;579;52.046;8.532;2023-03-01T06:38:30;0.10;;;0.10;;
1180;SDS011;579;52.046;8.532;2023-03-01T06:40:56;0.10;;;0.10;;
1180;SDS011;579;52.046;8.532;2023-03-01T06:43:23;0.10;;;0.10;;
1180;SDS011;579;52.046;8.532;2023-03-01T06:45:50;0.13;;;0.13;;
1180;SDS011;579;52.046;8.532;2023-03-01T06:48:46;0.10;;;0.10;;
1180;SDS011;579;52.046;8.532;2023-03-01T06:51:12;0.10;;;0.10;;
1180;SDS011;579;52.046;8.532;2023-03-01T06:53:38;0.20;;;0.20;;
1180;SDS011;579;52.046;8.532;2023-03-01T06:56:05;0.10;;;0.10;;
1180;SDS011;579;52.046;8.532;2023-03-01T06:58:31;0.15;;;0.15;;
1180;SDS011;579;52.046;8.532;2023-03-01T07:00:57;0.10;;;0.10;;
1180;SDS011;579;52.046;8.532;2023-03-01T07:03:23;0.10;;;0.10;;
1180;SDS011;579;52.046;8.532;2023-03-01T07:05:50;0.10;;;0.10;;
1180;SDS011;579;52.046;8.532;2023-03-01T07:13:18;0.10;;;0.10;;
1180;SDS011;579;52.046;8.532;2023-03-01T07:15:44;0.10;;;0.10;;
1180;SDS011;579;52.046;8.532;2023-03-01T07:18:10;0.10;;;0.10;;
1180;SDS011;579;52.046;8.532;2023-03-01T07:20:36;0.10;;;0.10;;
1180;SDS011;579;52.046;8.532;2023-03-01T07:23:02;0.10;;;0.10;;
1180;SDS011;579;52.046;8.532;2023-03-01T07:25:31;0.10;;;0.10;;
1180;SDS011;579;52.046;8.532;2023-03-01T07:27:57;0.20;;;0.20;;
1180;SDS011;579;52.046;8.532;2023-03-01T07:33:16;0.10;;;0.10;;
1180;SDS011;579;52.046;8.532;2023-03-01T07:35:42;0.10;;;0.10;;
1180;SDS011;579;52.046;8.532;2023-03-01T07:38:08;0.10;;;0.10;;
1180;SDS011;579;52.046;8.532;2023-03-01T07:40:35;0.10;;;0.10;;
1180;SDS011;579;52.046;8.532;2023-03-01T07:43:02;0.10;;;0.10;;
1180;SDS011;579;52.046;8.532;2023-03-01T07:45:28;0.10;;;0.10;;
1180;SDS011;579;52.046;8.532;2023-03-01T07:47:55;0.10;;;0.10;;
1180;SDS011;579;52.046;8.532;2023-03-01T07:53:08;0.10;;;0.10;;
1180;SDS011;579;52.046;8.532;2023-03-01T07:55:34;0.10;;;0.10;;
1180;SDS011;579;52.046;8.532;2023-03-01T07:58:01;0.10;;;0.10;;
1180;SDS011;579;52.046;8.532;2023-03-01T08:00:27;0.10;;;0.10;;
1180;SDS011;579;52.046;8.532;2023-03-01T08:02:53;0.10;;;0.10;;
1180;SDS011;579;52.046;8.532;2023-03-01T08:05:19;0.10;;;0.10;;
1180;SDS011;579;52.046;8.532;2023-03-01T08:07:47;0.10;;;0.10;;
1180;SDS011;579;52.046;8.532;2023-03-01T08:12:56;0.10;;;0.10;;
1180;SDS011;579;52.046;8.532;2023-03-01T08:15:22;0.10;;;0.10;;
1180;SDS011;579;52.046;8.532;2023-03-01T08:17:48;0.10;;;0.10;;
1180;SDS011;579;52.046;8.532;2023-03-01T08:20:15;0.10;;;0.10;;
1180;SDS011;579;52.046;8.532;2023-03-01T08:22:42;0.10;;;0.10;;
1180;SDS011;579;52.046;8.532;2023-03-01T08:25:08;0.10;;;0.10;;
1180;SDS011;579;52.046;8.532;2023-03-01T08:27:34;0.10;;;0.10;;
1180;SDS011;579;52.046;8.532;2023-03-01T08:30:01;0.10;;;0.10;;
1180;SDS011;579;52.046;8.532;2023-03-01T08:37:33;0.10;;;0.10;;
1180;SDS011;579;52.046;8.532;2023-03-01T08:39:59;0.10;;;0.10;;
1180;SDS011;579;52.046;8.532;2023-03-01T08:42:26;0.10;;;0.10;;
1180;SDS011;579;52.046;8.532;2023-03-01T08:44:52;0.10;;;0.10;;
1180;SDS011;579;52.046;8.532;2023-03-01T08:47:18;0.10;;;0.10;;
1180;SDS011;579;52.046;8.532;2023-03-01T08:49:45;0.10;;;0.10;;
1180;SDS011;579;52.046;8.532;2023-03-01T08:52:11;0.10;;;0.10;;
1180;SDS011;579;52.046;8.532;2023-03-01T08:57:46;0.10;;;0.10;;
1180;SDS011;579;52.046;8.532;2023-03-01T09:00:13;0.00;;;0.00;;
1180;SDS011;579;52.046;8.532;2023-03-01T09:02:40;0.10;;;0.10;;
1180;SDS011;579;52.046;8.532;2023-03-01T09:05:06;0.10;;;0.10;;
1180;SDS011;579;52.046;8.532;2023-03-01T09:07:33;0.10;;;0.10;;
1180;SDS011;579;52.046;8.532;2023-03-01T09:09:59;0.10;;;0.10;;
1180;SDS011;579;52.046;8.532;2023-03-01T09:12:26;0.10;;;0.10;;
1180;SDS011;579;52.046;8.532;2023-03-01T09:14:52;0.10;;;0.10;;
1180;SDS011;579;52.046;8.532;2023-03-01T09:23:55;0.10;;;0.10;;
1180;SDS011;579;52.046;8.532;2023-03-01T09:26:22;0.10;;;0.10;;
1180;SDS011;579;52.046;8.532;2023-03-01T09:28:50;0.00;;;0.00;;
1180;SDS011;579;52.046;8.532;2023-03-01T09:31:19;0.10;;;0.10;;
1180;SDS011;579;52.046;8.532;2023-03-01T09:33:48;0.10;;;0.10;;
1180;SDS011;579;52.046;8.532;2023-03-01T09:36:17;0.10;;;0.10;;
1180;SDS011;579;52.046;8.532;2023-03-01T09:38:45;0.20;;;0.20;;
1180;SDS011;579;52.046;8.532;2023-03-01T09:41:18;0.30;;;0.30;;
1180;SDS011;579;52.046;8.532;2023-03-01T09:44:10;0.57;;;0.57;;
1180;SDS011;579;52.046;8.532;2023-03-01T09:46:44;0.60;;;0.60;;
1180;SDS011;579;52.046;8.532;2023-03-01T09:49:12;0.40;;;0.40;;
1180;SDS011;579;52.046;8.532;2023-03-01T09:51:42;0.30;;;0.30;;
1180;SDS011;579;52.046;8.532;2023-03-01T09:54:18;0.30;;;0.30;;
1180;SDS011;579;52.046;8.532;2023-03-01T09:56:45;0.40;;;0.40;;
1180;SDS011;579;52.046;8.532;2023-03-01T09:59:24;0.30;;;0.30;;
1180;SDS011;579;52.046;8.532;2023-03-01T10:04:46;0.30;;;0.30;;
1180;SDS011;579;52.046;8.532;2023-03-01T10:07:21;0.95;;;0.95;;
1180;SDS011;579;52.046;8.532;2023-03-01T10:09:56;0.93;;;0.93;;
1180;SDS011;579;52.046;8.532;2023-03-01T10:12:26;0.60;;;0.60;;
1180;SDS011;579;52.046;8.532;2023-03-01T10:15:00;0.40;;;0.40;;
1180;SDS011;579;52.046;8.532;2023-03-01T10:17:33;0.40;;;0.40;;
1180;SDS011;579;52.046;8.532;2023-03-01T10:20:13;0.50;;;0.50;;
1180;SDS011;579;52.046;8.532;2023-03-01T10:24:07;0.60;;;0.60;;
1180;SDS011;579;52.046;8.532;2023-03-01T10:26:40;0.30;;;0.30;;
1180;SDS011;579;52.046;8.532;2023-03-01T10:29:18;0.30;;;0.30;;
1180;SDS011;579;52.046;8.532;2023-03-01T10:31:51;0.30;;;0.30;;
1180;SDS011;579;52.046;8.532;2023-03-01T10:34:20;0.40;;;0.40;;
1180;SDS011;579;52.046;8.532;2023-03-01T10:36:51;0.30;;;0.30;;
1180;SDS011;579;52.046;8.532;2023-03-01T10:39:22;0.32;;;0.32;;
1180;SDS011;579;52.046;8.532;2023-03-01T10:41:55;0.25;;;0.25;;
1180;SDS011;579;52.046;8.532;2023-03-01T10:49:38;0.30;;;0.30;;
1180;SDS011;579;52.046;8.532;2023-03-01T10:52:11;0.30;;;0.30;;
1180;SDS011;579;52.046;8.532;2023-03-01T10:54:50;0.22;;;0.22;;
1180;SDS011;579;52.046;8.532;2023-03-01T10:57:36;0.20;;;0.20;;
1180;SDS011;579;52.046;8.532;2023-03-01T11:00:20;0.20;;;0.20;;
1180;SDS011;579;52.046;8.532;2023-03-01T11:02:50;0.20;;;0.20;;
1180;SDS011;579;52.046;8.532;2023-03-01T11:05:35;0.20;;;0.20;;
1180;SDS011;579;52.046;8.532;2023-03-01T11:15:23;0.20;;;0.20;;
1180;SDS011;579;52.046;8.532;2023-03-01T11:17:52;0.28;;;0.28;;
1180;SDS011;579;52.046;8.532;2023-03-01T11:20:23;0.20;;;0.20;;
1180;SDS011;579;52.046;8.532;2023-03-01T11:22:53;0.20;;;0.20;;
1180;SDS011;579;52.046;8.532;2023-03-01T11:25:24;0.10;;;0.10;;
1180;SDS011;579;52.046;8.532;2023-03-01T11:27:53;0.20;;;0.20;;
1180;SDS011;579;52.046;8.532;2023-03-01T11:30:22;0.20;;;0.20;;
1180;SDS011;579;52.046;8.532;2023-03-01T11:33:18;0.20;;;0.20;;
1180;SDS011;579;52.046;8.532;2023-03-01T11:35:54;0.15;;;0.15;;
1180;SDS011;579;52.046;8.532;2023-03-01T11:38:27;0.10;;;0.10;;
1180;SDS011;579;52.046;8.532;2023-03-01T11:40:57;0.15;;;0.15;;
1180;SDS011;579;52.046;8.532;2023-03-01T11:43:33;0.10;;;0.10;;
1180;SDS011;579;52.046;8.532;2023-03-01T11:49:33;0.30;;;0.30;;
1180;SDS011;579;52.046;8.532;2023-03-01T11:55:19;0.20;;;0.20;;
1180;SDS011;579;52.046;8.532;2023-03-01T11:58:06;0.10;;;0.10;;
1180;SDS011;579;52.046;8.532;2023-03-01T12:00:56;0.13;;;0.13;;
1180;SDS011;579;52.046;8.532;2023-03-01T12:03:47;0.20;;;0.20;;
1180;SDS011;579;52.046;8.532;2023-03-01T12:06:46;0.15;;;0.15;;
1180;SDS011;579;52.046;8.532;2023-03-01T12:09:24;0.10;;;0.10;;
1180;SDS011;579;52.046;8.532;2023-03-01T12:15:39;0.10;;;0.10;;
1180;SDS011;579;52.046;8.532;2023-03-01T12:21:30;0.20;;;0.20;;
1180;SDS011;579;52.046;8.532;2023-03-01T12:24:14;0.20;;;0.20;;
1180;SDS011;579;52.046;8.532;2023-03-01T12:27:08;0.10;;;0.10;;
1180;SDS011;579;52.046;8.532;2023-03-01T12:29:52;0.10;;;0.10;;
1180;SDS011;579;52.046;8.532;2023-03-01T12:32:40;0.10;;;0.10;;
1180;SDS011;579;52.046;8.532;2023-03-01T12:35:45;0.10;;;0.10;;
1180;SDS011;579;52.046;8.532;2023-03-01T12:38:29;0.10;;;0.10;;
1180;SDS011;579;52.046;8.532;2023-03-01T12:41:14;0.10;;;0.10;;
1180;SDS011;579;52.046;8.532;2023-03-01T12:44:00;0.10;;;0.10;;
1180;SDS011;579;52.046;8.532;2023-03-01T12:46:40;0.10;;;0.10;;
1180;SDS011;579;52.046;8.532;2023-03-01T12:49:19;0.05;;;0.05;;
1180;SDS011;579;52.046;8.532;2023-03-01T12:51:53;0.10;;;0.10;;
1180;SDS011;579;52.046;8.532;2023-03-01T12:54:33;0.20;;;0.20;;
1180;SDS011;579;52.046;8.532;2023-03-01T12:57:02;0.20;;;0.20;;
1180;SDS011;579;52.046;8.532;2023-03-01T12:59:41;0.20;;;0.20;;
1180;SDS011;579;52.046;8.532;2023-03-01T13:02:17;0.20;;;0.20;;
1180;SDS011;579;52.046;8.532;2023-03-01T13:04:54;0.10;;;0.10;;
1180;SDS011;579;52.046;8.532;2023-03-01T13:07:50;0.10;;;0.10;;
1180;SDS011;579;52.046;8.532;2023-03-01T13:20:12;0.20;;;0.20;;
1180;SDS011;579;52.046;8.532;2023-03-01T13:22:40;0.10;;;0.10;;
1180;SDS011;579;52.046;8.532;2023-03-01T13:25:14;0.15;;;0.15;;
1180;SDS011;579;52.046;8.532;2023-03-01T13:27:43;0.10;;;0.10;;
1180;SDS011;579;52.046;8.532;2023-03-01T13:33:41;0.30;;;0.30;;
1180;SDS011;579;52.046;8.532;2023-03-01T13:36:09;0.40;;;0.40;;
1180;SDS011;579;52.046;8.532;2023-03-01T13:38:47;0.70;;;0.70;;
1180;SDS011;579;52.046;8.532;2023-03-01T13:44:17;0.65;;;0.65;;
1180;SDS011;579;52.046;8.532;2023-03-01T13:46:51;0.50;;;0.50;;
1180;SDS011;579;52.046;8.532;2023-03-01T13:49:23;0.60;;;0.60;;
1180;SDS011;579;52.046;8.532;2023-03-01T13:56:08;0.30;;;0.30;;
1180;SDS011;579;52.046;8.532;2023-03-01T13:58:44;0.30;;;0.30;;
1180;SDS011;579;52.046;8.532;2023-03-01T14:01:20;0.20;;;0.20;;
1180;SDS011;579;52.046;8.532;2023-03-01T14:03:50;0.20;;;0.20;;
1180;SDS011;579;52.046;8.532;2023-03-01T14:06:23;0.20;;;0.20;;
1180;SDS011;579;52.046;8.532;2023-03-01T14:08:51;0.20;;;0.20;;
1180;SDS011;579;52.046;8.532;2023-03-01T14:11:35;0.20;;;0.20;;
1180;SDS011;579;52.046;8.532;2023-03-01T14:17:24;0.30;;;0.30;;
1180;SDS011;579;52.046;8.532;2023-03-01T14:20:14;0.30;;;0.30;;
1180;SDS011;579;52.046;8.532;2023-03-01T14:22:45;0.30;;;0.30;;
1180;SDS011;579;52.046;8.532;2023-03-01T14:25:19;0.20;;;0.20;;
1180;SDS011;579;52.046;8.532;2023-03-01T14:27:54;0.20;;;0.20;;
1180;SDS011;579;52.046;8.532;2023-03-01T14:30:25;0.20;;;0.20;;
1180;SDS011;579;52.046;8.532;2023-03-01T14:32:55;0.20;;;0.20;;
1180;SDS011;579;52.046;8.532;2023-03-01T14:39:35;0.20;;;0.20;;
1180;SDS011;579;52.046;8.532;2023-03-01T14:42:02;0.20;;;0.20;;
1180;SDS011;579;52.046;8.532;2023-03-01T14:44:30;0.20;;;0.20;;
1180;SDS011;579;52.046;8.532;2023-03-01T14:46:58;0.20;;;0.20;;
1180;SDS011;579;52.046;8.532;2023-03-01T14:49:28;0.20;;;0.20;;
1180;SDS011;579;52.046;8.532;2023-03-01T14:51:57;0.20;;;0.20;;
1180;SDS011;579;52.046;8.532;2023-03-01T14:54:27;0.40;;;0.40;;
1180;SDS011;579;52.046;8.532;2023-03-01T14:57:05;0.20;;;0.20;;
1180;SDS011;579;52.046;8.532;2023-03-01T15:04:36;0.30;;;0.30;;
1180;SDS011;579;52.046;8.532;2023-03-01T15:07:03;0.40;;;0.40;;
1180;SDS011;579;52.046;8.532;2023-03-01T15:09:30;0.50;;;0.50;;
1180;SDS011;579;52.046;8.532;2023-03-01T15:11:58;0.50;;;0.50;;
1180;SDS011;579;52.046;8.532;2023-03-01T15:14:25;0.50;;;0.50;;
1180;SDS011;579;52.046;8.532;2023-03-01T15:17:13;0.73;;;0.73;;
1180;SDS011;579;52.046;8.532;2023-03-01T15:19:47;0.87;;;0.87;;
1180;SDS011;579;52.046;8.532;2023-03-01T15:26:35;0.63;;;0.63;;
1180;SDS011;579;52.046;8.532;2023-03-01T15:29:05;0.70;;;0.70;;
1180;SDS011;579;52.046;8.532;2023-03-01T15:31:42;0.70;;;0.70;;
1180;SDS011;579;52.046;8.532;2023-03-01T15:34:10;1.00;;;1.00;;
1180;SDS011;579;52.046;8.532;2023-03-01T15:36:47;0.93;;;0.93;;
1180;SDS011;579;52.046;8.532;2023-03-01T15:39:32;1.30;;;1.30;;
1180;SDS011;579;52.046;8.532;2023-03-01T15:42:03;1.47;;;1.47;;
1180;SDS011;579;52.046;8.532;2023-03-01T15:47:35;1.53;;;1.53;;
1180;SDS011;579;52.046;8.532;2023-03-01T15:50:05;1.50;;;1.50;;
1180;SDS011;579;52.046;8.532;2023-03-01T15:52:41;1.57;;;1.57;;
1180;SDS011;579;52.046;8.532;2023-03-01T15:55:14;1.97;;;1.97;;
1180;SDS011;579;52.046;8.532;2023-03-01T15:57:43;1.47;;;1.47;;
1180;SDS011;579;52.046;8.532;2023-03-01T16:00:10;1.30;;;1.30;;
1180;SDS011;579;52.046;8.532;2023-03-01T16:02:39;0.93;;;0.93;;
1180;SDS011;579;52.046;8.532;2023-03-01T16:05:09;0.47;;;0.47;;
1180;SDS011;579;52.046;8.532;2023-03-01T16:12:51;0.10;;;0.10;;
1180;SDS011;579;52.046;8.532;2023-03-01T16:15:18;0.10;;;0.10;;
1180;SDS011;579;52.046;8.532;2023-03-01T16:17:47;0.13;;;0.13;;
1180;SDS011;579;52.046;8.532;2023-03-01T16:20:14;0.10;;;0.10;;
1180;SDS011;579;52.046;8.532;2023-03-01T16:22:40;0.00;;;0.00;;
1180;SDS011;579;52.046;8.532;2023-03-01T16:25:08;0.10;;;0.10;;
1180;SDS011;579;52.046;8.532;2023-03-01T16:27:35;0.10;;;0.10;;
1180;SDS011;579;52.046;8.532;2023-03-01T16:30:02;0.10;;;0.10;;
1180;SDS011;579;52.046;8.532;2023-03-01T16:37:31;0.10;;;0.10;;
1180;SDS011;579;52.046;8.532;2023-03-01T16:39:58;0.10;;;0.10;;
1180;SDS011;579;52.046;8.532;2023-03-01T16:42:25;0.10;;;0.10;;
1180;SDS011;579;52.046;8.532;2023-03-01T16:44:54;0.10;;;0.10;;
1180;SDS011;579;52.046;8.532;2023-03-01T16:47:20;0.10;;;0.10;;
1180;SDS011;579;52.046;8.532;2023-03-01T16:49:47;0.10;;;0.10;;
1180;SDS011;579;52.046;8.532;2023-03-01T16:52:13;0.10;;;0.10;;
1180;SDS011;579;52.046;8.532;2023-03-01T16:54:39;0.10;;;0.10;;
1180;SDS011;579;52.046;8.532;2023-03-01T17:02:05;0.10;;;0.10;;
1180;SDS011;579;52.046;8.532;2023-03-01T17:04:35;0.10;;;0.10;;
1180;SDS011;579;52.046;8.532;2023-03-01T17:07:02;0.10;;;0.10;;
1180;SDS011;579;52.046;8.532;2023-03-01T17:09:28;0.10;;;0.10;;
1180;SDS011;579;52.046;8.532;2023-03-01T17:11:54;0.10;;;0.10;;
1180;SDS011;579;52.046;8.532;2023-03-01T17:14:20;0.10;;;0.10;;
1180;SDS011;579;52.046;8.532;2023-03-01T17:16:47;0.10;;;0.10;;
1180;SDS011;579;52.046;8.532;2023-03-01T17:21:53;0.10;;;0.10;;
1180;SDS011;579;52.046;8.532;2023-03-01T17:24:19;0.10;;;0.10;;
1180;SDS011;579;52.046;8.532;2023-03-01T17:26:45;0.10;;;0.10;;
1180;SDS011;579;52.046;8.532;2023-03-01T17:29:11;0.10;;;0.10;;
1180;SDS011;579;52.046;8.532;2023-03-01T17:31:38;0.10;;;0.10;;
1180;SDS011;579;52.046;8.532;2023-03-01T17:34:04;0.10;;;0.10;;
1180;SDS011;579;52.046;8.532;2023-03-01T17:36:30;0.10;;;0.10;;
1180;SDS011;579;52.046;8.532;2023-03-01T17:38:59;0.10;;;0.10;;
1180;SDS011;579;52.046;8.532;2023-03-01T17:46:30;0.10;;;0.10;;
1180;SDS011;579;52.046;8.532;2023-03-01T17:48:56;0.10;;;0.10;;
1180;SDS011;579;52.046;8.532;2023-03-01T17:51:23;0.10;;;0.10;;
1180;SDS011;579;52.046;8.532;2023-03-01T17:53:52;0.10;;;0.10;;
1180;SDS011;579;52.046;8.532;2023-03-01T17:56:18;0.10;;;0.10;;
1180;SDS011;579;52.046;8.532;2023-03-01T17:58:44;0.10;;;0.10;;
1180;SDS011;579;52.046;8.532;2023-03-01T18:01:11;0.10;;;0.10;;
1180;SDS011;579;52.046;8.532;2023-03-01T18:06:20;0.10;;;0.10;;
1180;SDS011;579;52.046;8.532;2023-03-01T18:08:48;0.10;;;0.10;;
1180;SDS011;579;52.046;8.532;2023-03-01T18:11:16;0.10;;;0.10;;
1180;SDS011;579;52.046;8.532;2023-03-01T18:13:43;0.10;;;0.10;;
1180;SDS011;579;52.046;8.532;2023-03-01T18:16:12;0.10;;;0.10;;
1180;SDS011;579;52.046;8.532;2023-03-01T18:18:41;0.10;;;0.10;;
1180;SDS011;579;52.046;8.532;2023-03-01T18:21:09;0.10;;;0.10;;
1180;SDS011;579;52.046;8.532;2023-03-01T18:23:37;0.10;;;0.10;;
1180;SDS011;579;52.046;8.532;2023-03-01T18:31:15;0.10;;;0.10;;
1180;SDS011;579;52.046;8.532;2023-03-01T18:33:46;0.10;;;0.10;;
1180;SDS011;579;52.046;8.532;2023-03-01T18:36:17;0.10;;;0.10;;
1180;SDS011;579;52.046;8.532;2023-03-01T18:38:46;0.20;;;0.20;;
1180;SDS011;579;52.046;8.532;2023-03-01T18:41:13;0.10;;;0.10;;
1180;SDS011;579;52.046;8.532;2023-03-01T18:43:40;0.10;;;0.10;;
1180;SDS011;579;52.046;8.532;2023-03-01T18:46:06;0.20;;;0.20;;
1180;SDS011;579;52.046;8.532;2023-03-01T18:51:16;0.20;;;0.20;;
1180;SDS011;579;52.046;8.532;2023-03-01T18:53:44;0.10;;;0.10;;
1180;SDS011;579;52.046;8.532;2023-03-01T18:56:10;0.10;;;0.10;;